createdAt,value
2023-01-22T00:00:07.690Z,55.64
2023-01-22T00:02:55.395Z,55.51
2023-01-22T00:05:22.156Z,55.75
2023-01-22T00:07:49.293Z,55.57
2023-01-22T00:10:16.859Z,55.52
2023-01-22T00:12:44.217Z,55.28
2023-01-22T00:15:11.079Z,55.35
2023-01-22T00:17:38.209Z,55.46
2023-01-22T00:20:06.559Z,55.14
2023-01-22T00:22:33.676Z,55.58
2023-01-22T00:25:00.494Z,55.34
2023-01-22T00:27:27.655Z,55.59
2023-01-22T00:29:54.460Z,55.49
2023-01-22T00:32:21.718Z,55.70
2023-01-22T00:34:52.352Z,55.64
2023-01-22T00:37:20.346Z,55.66
2023-01-22T00:39:47.328Z,55.55
2023-01-22T00:42:14.385Z,55.64
2023-01-22T00:44:41.187Z,55.60
2023-01-22T00:47:08.291Z,55.26
2023-01-22T00:49:35.025Z,55.43
2023-01-22T00:52:02.163Z,55.41
2023-01-22T00:54:30.291Z,55.37
2023-01-22T00:56:57.409Z,55.21
2023-01-22T00:59:24.245Z,55.08
2023-01-22T01:01:51.467Z,55.39
2023-01-22T01:04:18.323Z,55.48
2023-01-22T01:06:45.600Z,55.66
2023-01-22T01:09:12.578Z,55.50
2023-01-22T01:11:39.621Z,55.32
2023-01-22T01:14:06.465Z,55.18
2023-01-22T01:16:33.670Z,54.75
2023-01-22T01:19:05.199Z,55.10
2023-01-22T01:21:32.395Z,55.28
2023-01-22T01:23:59.326Z,55.09
2023-01-22T01:26:26.478Z,55.01
2023-01-22T01:28:53.407Z,55.20
2023-01-22T01:31:21.678Z,55.28
2023-01-22T01:33:48.893Z,55.26
2023-01-22T01:36:35.486Z,54.91
2023-01-22T01:39:07.590Z,55.02
2023-01-22T01:41:34.675Z,54.88
2023-01-22T01:44:08.587Z,55.02
2023-01-22T01:46:37.043Z,55.11
2023-01-22T01:49:03.847Z,55.28
2023-01-22T01:51:34.343Z,54.87
2023-01-22T01:54:01.228Z,55.11
2023-01-22T01:56:44.026Z,54.74
2023-01-22T01:59:12.156Z,54.71
2023-01-22T02:01:39.278Z,55.01
2023-01-22T02:04:06.495Z,54.71
2023-01-22T02:06:33.525Z,54.87
2023-01-22T02:09:00.590Z,54.88
2023-01-22T02:11:27.744Z,54.89
2023-01-22T02:14:17.138Z,54.89
2023-01-22T02:16:44.439Z,55.06
2023-01-22T02:19:11.224Z,55.00
2023-01-22T02:21:44.773Z,54.92
2023-01-22T02:24:15.837Z,54.68
2023-01-22T02:26:44.261Z,54.74
2023-01-22T02:29:12.847Z,54.34
2023-01-22T02:31:40.513Z,54.67
2023-01-22T02:34:07.838Z,54.74
2023-01-22T02:36:35.715Z,54.81
2023-01-22T02:39:02.620Z,55.11
2023-01-22T02:41:29.740Z,54.80
2023-01-22T02:43:56.595Z,54.62
2023-01-22T02:46:25.335Z,54.57
2023-01-22T02:48:52.127Z,54.86
2023-01-22T02:51:19.249Z,54.86
2023-01-22T02:53:46.048Z,54.77
2023-01-22T02:56:13.075Z,55.03
2023-01-22T02:58:40.152Z,54.85
2023-01-22T03:01:19.068Z,54.83
2023-01-22T03:03:58.652Z,54.66
2023-01-22T03:06:26.693Z,54.50
2023-01-22T03:08:58.094Z,54.75
2023-01-22T03:11:26.879Z,54.91
2023-01-22T03:14:12.819Z,54.35
2023-01-22T03:16:58.472Z,54.60
2023-01-22T03:19:43.877Z,55.03
2023-01-22T03:22:10.962Z,54.83
2023-01-22T03:24:37.770Z,54.45
2023-01-22T03:27:04.989Z,54.52
2023-01-22T03:29:31.734Z,54.53
2023-01-22T03:31:58.960Z,54.67
2023-01-22T03:34:25.962Z,54.44
2023-01-22T03:36:53.141Z,54.30
2023-01-22T03:39:19.931Z,54.50
2023-01-22T03:41:47.023Z,54.33
2023-01-22T03:44:14.343Z,54.33
2023-01-22T03:46:41.390Z,54.51
2023-01-22T03:49:08.749Z,54.31
2023-01-22T03:51:35.880Z,54.31
2023-01-22T03:54:02.652Z,54.46
2023-01-22T03:56:29.787Z,54.22
2023-01-22T03:58:56.617Z,54.38
2023-01-22T04:01:25.368Z,54.03
2023-01-22T04:03:52.607Z,54.11
2023-01-22T04:06:19.910Z,54.27
2023-01-22T04:08:47.614Z,54.04
2023-01-22T04:11:14.751Z,54.19
2023-01-22T04:13:42.553Z,54.34
2023-01-22T04:16:09.996Z,54.38
2023-01-22T04:18:36.834Z,54.37
2023-01-22T04:21:04.092Z,54.26
2023-01-22T04:23:30.859Z,54.47
2023-01-22T04:25:58.047Z,54.17
2023-01-22T04:28:24.769Z,54.49
2023-01-22T04:30:53.274Z,54.43
2023-01-22T04:33:20.188Z,54.62
2023-01-22T04:35:54.085Z,54.45
2023-01-22T04:38:20.922Z,54.68
2023-01-22T04:40:48.027Z,54.71
2023-01-22T04:43:14.778Z,54.79
2023-01-22T04:45:41.850Z,54.45
2023-01-22T04:48:09.299Z,54.70
2023-01-22T04:50:36.430Z,54.36
2023-01-22T04:53:03.424Z,54.36
2023-01-22T04:55:30.622Z,54.42
2023-01-22T04:57:58.211Z,54.22
2023-01-22T05:00:26.040Z,54.26
2023-01-22T05:02:57.576Z,54.17
2023-01-22T05:05:24.856Z,54.15
2023-01-22T05:07:51.705Z,54.29
2023-01-22T05:10:19.176Z,54.15
2023-01-22T05:12:46.225Z,54.19
2023-01-22T05:15:23.609Z,54.36
2023-01-22T05:17:52.238Z,54.05
2023-01-22T05:20:19.812Z,54.07
2023-01-22T05:22:46.803Z,54.05
2023-01-22T05:25:13.936Z,54.20
2023-01-22T05:27:40.743Z,54.05
2023-01-22T05:30:08.494Z,53.79
2023-01-22T05:32:35.305Z,54.27
2023-01-22T05:35:02.929Z,53.83
2023-01-22T05:37:31.304Z,53.89
2023-01-22T05:39:58.364Z,53.82
2023-01-22T05:42:25.191Z,54.19
2023-01-22T05:44:52.307Z,54.12
2023-01-22T05:47:19.077Z,54.02
2023-01-22T05:49:46.156Z,54.09
2023-01-22T05:52:13.032Z,54.13
2023-01-22T05:54:40.131Z,54.11
2023-01-22T05:57:06.973Z,54.35
2023-01-22T05:59:34.099Z,54.24
2023-01-22T06:02:01.059Z,54.10
2023-01-22T06:04:28.375Z,54.00
2023-01-22T06:06:55.112Z,54.24
2023-01-22T06:09:22.297Z,54.35
2023-01-22T06:11:49.124Z,54.00
2023-01-22T06:14:16.425Z,54.08
2023-01-22T06:16:43.277Z,53.99
2023-01-22T06:19:10.506Z,54.19
2023-01-22T06:21:37.256Z,54.09
2023-01-22T06:24:04.479Z,54.01
2023-01-22T06:26:31.263Z,54.12
2023-01-22T06:28:58.384Z,54.11
2023-01-22T06:31:25.416Z,53.79
2023-01-22T06:33:53.126Z,53.71
2023-01-22T06:36:19.853Z,53.97
2023-01-22T06:38:46.989Z,53.66
2023-01-22T06:41:13.739Z,53.76
2023-01-22T06:43:40.792Z,54.18
2023-01-22T06:46:07.570Z,53.47
2023-01-22T06:48:34.708Z,53.83
2023-01-22T06:51:01.525Z,53.94
2023-01-22T06:53:28.709Z,53.99
2023-01-22T06:55:55.553Z,53.84
2023-01-22T06:58:22.617Z,53.81
2023-01-22T07:00:49.397Z,53.96
2023-01-22T07:03:16.490Z,54.02
2023-01-22T07:05:43.225Z,53.82
2023-01-22T07:08:16.490Z,54.04
2023-01-22T07:10:43.257Z,54.06
2023-01-22T07:13:10.489Z,53.94
2023-01-22T07:15:37.328Z,54.13
2023-01-22T07:18:04.499Z,54.26
2023-01-22T07:20:31.260Z,54.09
2023-01-22T07:23:00.239Z,54.14
2023-01-22T07:25:27.601Z,54.15
2023-01-22T07:28:04.296Z,53.98
2023-01-22T07:30:31.155Z,53.92
2023-01-22T07:33:00.316Z,54.34
2023-01-22T07:35:27.426Z,53.79
2023-01-22T07:37:55.228Z,54.16
2023-01-22T07:40:24.217Z,53.98
2023-01-22T07:42:51.865Z,53.77
2023-01-22T07:45:19.402Z,54.07
2023-01-22T07:47:54.666Z,54.15
2023-01-22T07:50:24.902Z,53.88
2023-01-22T07:52:51.948Z,53.59
2023-01-22T07:55:18.780Z,54.12
2023-01-22T07:57:45.837Z,53.90
2023-01-22T08:00:13.094Z,54.03
2023-01-22T08:02:40.186Z,53.92
2023-01-22T08:05:07.575Z,54.22
2023-01-22T08:07:34.646Z,54.30
2023-01-22T08:10:01.451Z,54.13
2023-01-22T08:12:28.617Z,54.12
2023-01-22T08:14:55.370Z,54.22
2023-01-22T08:17:22.494Z,54.07
2023-01-22T08:19:49.262Z,54.19
2023-01-22T08:22:16.284Z,54.49
2023-01-22T08:24:43.197Z,54.10
2023-01-22T08:27:10.269Z,54.19
2023-01-22T08:29:37.062Z,54.03
2023-01-22T08:32:04.320Z,53.97
2023-01-22T08:34:31.132Z,54.12
2023-01-22T08:36:58.202Z,54.03
2023-01-22T08:39:25.003Z,54.28
2023-01-22T08:41:57.368Z,53.97
2023-01-22T08:44:24.837Z,54.00
2023-01-22T08:46:52.100Z,54.28
2023-01-22T08:49:18.906Z,53.86
2023-01-22T08:51:45.954Z,54.35
2023-01-22T08:54:12.700Z,54.28
2023-01-22T08:56:39.766Z,53.77
2023-01-22T08:59:06.745Z,54.14
2023-01-22T09:01:33.966Z,53.93
2023-01-22T09:04:00.706Z,53.81
2023-01-22T09:06:28.193Z,53.84
2023-01-22T09:08:55.339Z,54.11
2023-01-22T09:11:22.429Z,54.19
2023-01-22T09:13:49.313Z,53.82
2023-01-22T09:16:16.395Z,54.16
2023-01-22T09:18:43.226Z,54.05
2023-01-22T09:21:10.363Z,54.12
2023-01-22T09:23:37.115Z,54.16
2023-01-22T09:26:04.321Z,54.21
2023-01-22T09:28:31.300Z,54.10
2023-01-22T09:30:58.420Z,54.44
2023-01-22T09:33:25.201Z,54.12
2023-01-22T09:35:52.281Z,54.14
2023-01-22T09:38:19.050Z,53.80
2023-01-22T09:40:54.896Z,54.03
2023-01-22T09:43:25.068Z,53.93
2023-01-22T09:45:53.663Z,54.02
2023-01-22T09:48:21.080Z,54.07
2023-01-22T09:50:48.153Z,54.04
2023-01-22T09:53:17.137Z,54.20
2023-01-22T09:55:46.416Z,54.19
2023-01-22T09:58:18.499Z,54.30
2023-01-22T10:00:49.147Z,54.14
2023-01-22T10:03:36.507Z,54.25
2023-01-22T10:06:21.433Z,54.01
2023-01-22T10:09:00.633Z,54.16
2023-01-22T10:11:27.755Z,54.51
2023-01-22T10:13:56.429Z,54.13
2023-01-22T10:16:23.592Z,54.27
2023-01-22T10:18:53.201Z,54.25
2023-01-22T10:21:32.131Z,54.10
2023-01-22T10:23:59.063Z,54.09
2023-01-22T10:26:36.563Z,54.12
2023-01-22T10:29:06.069Z,54.35
2023-01-22T10:31:39.893Z,54.19
2023-01-22T10:34:17.445Z,54.02
2023-01-22T10:36:51.885Z,54.46
2023-01-22T10:39:18.915Z,54.04
2023-01-22T10:41:46.832Z,54.40
2023-01-22T10:44:16.615Z,54.33
2023-01-22T10:46:43.716Z,54.26
2023-01-22T10:49:30.165Z,54.21
2023-01-22T10:51:59.075Z,54.22
2023-01-22T10:54:25.816Z,54.50
2023-01-22T10:56:53.519Z,54.40
2023-01-22T10:59:26.468Z,54.68
2023-01-22T11:02:15.839Z,54.34
2023-01-22T11:04:42.697Z,54.26
2023-01-22T11:07:18.298Z,54.17
2023-01-22T11:09:49.540Z,54.25
2023-01-22T11:12:19.650Z,54.37
2023-01-22T11:14:46.665Z,54.33
2023-01-22T11:17:21.260Z,54.23
2023-01-22T11:20:10.344Z,54.18
2023-01-22T11:22:38.957Z,54.45
2023-01-22T11:25:09.328Z,54.46
2023-01-22T11:28:06.027Z,54.54
2023-01-22T11:30:56.041Z,54.17
2023-01-22T11:33:44.635Z,54.04
2023-01-22T11:36:19.417Z,54.34
2023-01-22T11:38:53.628Z,54.45
2023-01-22T11:41:36.240Z,54.35
2023-01-22T11:44:03.402Z,54.49
2023-01-22T11:46:42.516Z,54.57
2023-01-22T11:49:50.971Z,54.62
2023-01-22T11:52:42.457Z,54.36
2023-01-22T11:55:39.749Z,54.24
2023-01-22T11:58:25.850Z,54.31
2023-01-22T12:01:29.371Z,54.60
2023-01-22T12:04:07.752Z,54.62
2023-01-22T12:06:34.803Z,54.54
2023-01-22T12:09:15.251Z,54.54
2023-01-22T12:12:00.881Z,54.94
2023-01-22T12:14:36.449Z,54.78
2023-01-22T12:17:03.635Z,54.88
2023-01-22T12:19:33.239Z,54.86
2023-01-22T12:22:22.921Z,54.84
2023-01-22T12:25:21.058Z,54.82
2023-01-22T12:27:53.157Z,54.84
2023-01-22T12:30:23.799Z,55.08
2023-01-22T12:33:02.317Z,54.92
2023-01-22T12:35:30.724Z,54.26
2023-01-22T12:38:06.914Z,54.83
2023-01-22T12:41:10.992Z,54.79
2023-01-22T12:43:50.537Z,54.91
2023-01-22T12:46:26.512Z,55.19
2023-01-22T12:49:09.515Z,54.94
2023-01-22T12:51:41.377Z,54.77
2023-01-22T12:54:19.727Z,54.80
2023-01-22T12:56:47.226Z,55.03
2023-01-22T12:59:41.299Z,55.29
2023-01-22T13:02:26.731Z,54.88
2023-01-22T13:04:54.485Z,54.93
2023-01-22T13:07:36.361Z,55.11
2023-01-22T13:10:25.287Z,54.79
2023-01-22T13:12:53.560Z,54.83
2023-01-22T13:15:34.250Z,54.96
2023-01-22T13:18:15.161Z,54.58
2023-01-22T13:21:09.453Z,54.80
2023-01-22T13:23:40.866Z,55.02
2023-01-22T13:26:08.121Z,55.00
2023-01-22T13:28:34.982Z,55.14
2023-01-22T13:31:04.315Z,54.64
2023-01-22T13:33:31.668Z,54.90
2023-01-22T13:35:59.009Z,54.55
2023-01-22T13:38:29.853Z,55.02
2023-01-22T13:41:01.413Z,54.84
2023-01-22T13:43:28.276Z,55.19
2023-01-22T13:45:56.309Z,54.77
2023-01-22T13:48:24.433Z,54.87
2023-01-22T13:50:57.487Z,55.02
2023-01-22T13:53:40.692Z,54.95
2023-01-22T13:56:11.130Z,54.86
2023-01-22T13:58:48.285Z,55.04
2023-01-22T14:01:30.932Z,54.94
2023-01-22T14:04:02.311Z,55.01
2023-01-22T14:06:29.626Z,54.87
2023-01-22T14:08:57.525Z,55.05
2023-01-22T14:11:24.924Z,54.92
2023-01-22T14:13:52.786Z,54.86
2023-01-22T14:16:20.311Z,54.95
2023-01-22T14:18:47.528Z,54.95
2023-01-22T14:21:15.058Z,54.99
2023-01-22T14:23:42.861Z,54.91
2023-01-22T14:26:09.954Z,54.83
2023-01-22T14:28:36.768Z,55.20
2023-01-22T14:31:04.225Z,55.03
2023-01-22T14:33:32.348Z,54.84
2023-01-22T14:35:59.508Z,54.97
2023-01-22T14:38:26.458Z,54.80
2023-01-22T14:40:53.675Z,55.19
2023-01-22T14:43:20.576Z,54.86
2023-01-22T14:45:47.855Z,54.91
2023-01-22T14:48:19.355Z,55.04
2023-01-22T14:50:46.745Z,55.13
2023-01-22T14:53:13.932Z,55.14
2023-01-22T14:55:42.608Z,54.87
2023-01-22T14:58:10.166Z,55.19
2023-01-22T15:00:38.026Z,55.15
2023-01-22T15:03:05.026Z,55.08
2023-01-22T15:05:34.630Z,55.13
2023-01-22T15:08:02.442Z,55.03
2023-01-22T15:10:29.488Z,55.27
2023-01-22T15:12:56.358Z,55.16
2023-01-22T15:15:26.295Z,55.00
2023-01-22T15:17:53.794Z,55.17
2023-01-22T15:20:21.447Z,55.16
2023-01-22T15:22:49.653Z,55.22
2023-01-22T15:25:17.131Z,55.01
2023-01-22T15:27:44.664Z,55.11
2023-01-22T15:30:14.117Z,55.39
2023-01-22T15:32:41.084Z,55.24
2023-01-22T15:35:08.641Z,55.42
2023-01-22T15:37:35.468Z,55.05
2023-01-22T15:40:02.603Z,55.47
2023-01-22T15:42:29.476Z,55.28
2023-01-22T15:44:56.564Z,55.27
2023-01-22T15:47:23.348Z,55.34
2023-01-22T15:49:50.420Z,55.69
2023-01-22T15:52:17.263Z,55.41
2023-01-22T15:54:44.386Z,55.25
2023-01-22T15:57:11.175Z,55.44
2023-01-22T15:59:41.434Z,55.34
2023-01-22T16:02:11.291Z,55.40
2023-01-22T16:04:38.428Z,55.71
2023-01-22T16:07:05.190Z,55.43
2023-01-22T16:09:32.477Z,55.30
2023-01-22T16:11:59.394Z,55.52
2023-01-22T16:14:28.358Z,55.50
2023-01-22T16:16:55.320Z,55.31
2023-01-22T16:19:22.450Z,55.40
2023-01-22T16:21:49.306Z,55.63
2023-01-22T16:24:16.385Z,55.55
2023-01-22T16:26:43.126Z,55.30
2023-01-22T16:29:10.267Z,55.57
2023-01-22T16:31:38.363Z,55.52
2023-01-22T16:34:13.539Z,55.76
2023-01-22T16:36:40.960Z,55.66
2023-01-22T16:39:08.436Z,55.37
2023-01-22T16:41:36.246Z,55.65
2023-01-22T16:44:07.662Z,55.35
2023-01-22T16:46:35.660Z,55.64
2023-01-22T16:49:06.985Z,55.19
2023-01-22T16:51:35.915Z,55.13
2023-01-22T16:54:03.069Z,55.47
2023-01-22T16:56:29.917Z,55.40
2023-01-22T16:58:57.408Z,55.47
2023-01-22T17:01:24.278Z,55.08
2023-01-22T17:03:51.415Z,55.49
2023-01-22T17:06:27.136Z,55.56
2023-01-22T17:08:54.324Z,55.43
2023-01-22T17:11:21.315Z,55.29
2023-01-22T17:13:48.571Z,55.30
2023-01-22T17:16:15.768Z,55.49
2023-01-22T17:18:42.929Z,55.46
2023-01-22T17:21:11.428Z,55.48
2023-01-22T17:23:38.672Z,55.62
2023-01-22T17:26:09.950Z,55.68
2023-01-22T17:28:37.662Z,55.68
2023-01-22T17:31:12.139Z,55.63
2023-01-22T17:33:39.510Z,55.51
2023-01-22T17:36:06.970Z,55.58
2023-01-22T17:38:38.332Z,55.40
2023-01-22T17:41:24.889Z,55.63
2023-01-22T17:43:52.657Z,55.79
2023-01-22T17:46:21.331Z,55.82
2023-01-22T17:48:48.960Z,55.81
2023-01-22T17:51:17.441Z,55.73
2023-01-22T17:53:45.367Z,55.74
2023-01-22T17:56:16.900Z,55.71
2023-01-22T17:58:54.097Z,55.76
2023-01-22T18:01:21.982Z,55.69
2023-01-22T18:03:49.337Z,55.73
2023-01-22T18:06:16.235Z,55.83
2023-01-22T18:08:43.516Z,55.72
2023-01-22T18:11:15.464Z,55.84
2023-01-22T18:13:42.668Z,56.02
2023-01-22T18:16:12.411Z,56.07
2023-01-22T18:18:39.525Z,55.64
2023-01-22T18:21:07.010Z,55.84
2023-01-22T18:23:35.691Z,55.97
2023-01-22T18:26:05.949Z,55.73
2023-01-22T18:28:33.487Z,55.82
2023-01-22T18:31:19.435Z,55.55
2023-01-22T18:33:48.230Z,55.63
2023-01-22T18:36:17.031Z,55.85
2023-01-22T18:38:44.337Z,55.60
2023-01-22T18:41:15.916Z,55.93
2023-01-22T18:43:43.243Z,55.84
2023-01-22T18:46:11.841Z,55.89
2023-01-22T18:48:40.131Z,55.91
2023-01-22T18:51:08.996Z,55.76
2023-01-22T18:53:37.116Z,56.02
2023-01-22T18:56:05.165Z,55.81
2023-01-22T18:58:34.274Z,55.97
2023-01-22T19:01:15.475Z,55.83
2023-01-22T19:03:43.999Z,55.91
2023-01-22T19:06:16.213Z,56.16
2023-01-22T19:08:44.967Z,55.82
2023-01-22T19:11:12.303Z,55.96
2023-01-22T19:13:40.295Z,55.83
2023-01-22T19:16:12.185Z,55.81
2023-01-22T19:18:42.374Z,56.12
2023-01-22T19:21:17.340Z,55.81
2023-01-22T19:23:49.355Z,55.90
2023-01-22T19:26:18.447Z,56.21
2023-01-22T19:28:45.666Z,55.69
2023-01-22T19:31:23.237Z,55.85
2023-01-22T19:33:51.400Z,55.65
2023-01-22T19:36:18.506Z,55.62
2023-01-22T19:38:45.723Z,55.75
2023-01-22T19:41:12.548Z,55.82
2023-01-22T19:43:39.757Z,55.92
2023-01-22T19:46:08.313Z,55.50
2023-01-22T19:48:35.827Z,55.82
2023-01-22T19:51:05.529Z,55.77
2023-01-22T19:53:33.757Z,55.64
2023-01-22T19:56:00.703Z,55.49
2023-01-22T19:58:28.361Z,55.60
2023-01-22T20:00:58.159Z,55.72
2023-01-22T20:03:27.369Z,55.80
2023-01-22T20:05:54.661Z,55.75
2023-01-22T20:08:22.008Z,55.59
2023-01-22T20:10:51.147Z,55.58
2023-01-22T20:13:18.428Z,55.81
2023-01-22T20:15:45.417Z,55.97
2023-01-22T20:18:12.584Z,56.12
2023-01-22T20:20:39.489Z,56.13
2023-01-22T20:23:06.761Z,55.92
2023-01-22T20:25:33.643Z,56.08
2023-01-22T20:28:01.009Z,56.06
2023-01-22T20:30:27.875Z,55.84
2023-01-22T20:32:56.649Z,55.61
2023-01-22T20:35:23.718Z,55.53
2023-01-22T20:37:50.936Z,55.74
2023-01-22T20:40:18.162Z,56.04
2023-01-22T20:42:45.580Z,55.70
2023-01-22T20:45:12.527Z,55.53
2023-01-22T20:47:39.715Z,55.94
2023-01-22T20:50:07.102Z,55.84
2023-01-22T20:52:34.370Z,55.73
2023-01-22T20:55:02.616Z,55.66
2023-01-22T20:57:30.411Z,55.77
2023-01-22T20:59:57.312Z,55.60
2023-01-22T21:02:24.609Z,55.75
2023-01-22T21:04:52.825Z,55.99
2023-01-22T21:07:20.169Z,55.70
2023-01-22T21:09:47.111Z,55.70
2023-01-22T21:12:14.346Z,56.00
2023-01-22T21:14:41.166Z,56.00
2023-01-22T21:17:08.400Z,55.93
2023-01-22T21:19:35.396Z,55.97
2023-01-22T21:22:04.017Z,56.31
2023-01-22T21:24:31.212Z,55.95
2023-01-22T21:26:58.385Z,56.05
2023-01-22T21:29:25.484Z,56.28
2023-01-22T21:31:52.878Z,56.17
2023-01-22T21:34:24.180Z,56.20
2023-01-22T21:36:53.712Z,56.07
2023-01-22T21:39:24.846Z,56.21
2023-01-22T21:41:51.885Z,56.21
2023-01-22T21:44:54.890Z,56.17
2023-01-22T21:47:21.753Z,56.20
2023-01-22T21:49:50.032Z,56.22
2023-01-22T21:52:16.893Z,56.24
2023-01-22T21:54:44.107Z,56.49
2023-01-22T21:57:12.676Z,56.09
2023-01-22T21:59:40.511Z,56.17
2023-01-22T22:02:07.595Z,55.81
2023-01-22T22:04:34.762Z,56.26
2023-01-22T22:07:01.543Z,56.13
2023-01-22T22:09:28.784Z,56.17
2023-01-22T22:11:56.461Z,56.15
2023-01-22T22:14:24.438Z,56.30
2023-01-22T22:16:52.113Z,56.13
2023-01-22T22:19:19.525Z,56.22
2023-01-22T22:21:46.545Z,56.27
2023-01-22T22:24:13.958Z,56.18
2023-01-22T22:26:40.793Z,56.38
2023-01-22T22:29:08.157Z,56.17
2023-01-22T22:31:35.061Z,55.99
2023-01-22T22:34:02.289Z,56.35
2023-01-22T22:36:29.789Z,56.01
2023-01-22T22:38:57.010Z,56.05
2023-01-22T22:41:28.540Z,56.04
2023-01-22T22:43:55.676Z,56.29
2023-01-22T22:46:23.284Z,56.21
2023-01-22T22:48:50.786Z,56.39
2023-01-22T22:51:23.024Z,56.40
2023-01-22T22:53:54.965Z,56.50
2023-01-22T22:56:22.093Z,56.45
2023-01-22T22:58:49.384Z,56.35
2023-01-22T23:01:17.887Z,56.35
2023-01-22T23:03:44.967Z,56.22
2023-01-22T23:06:16.680Z,56.52
2023-01-22T23:08:46.155Z,56.22
2023-01-22T23:11:15.418Z,56.15
2023-01-22T23:13:46.761Z,56.23
2023-01-22T23:16:14.423Z,56.25
2023-01-22T23:18:41.548Z,55.97
2023-01-22T23:21:09.968Z,56.16
2023-01-22T23:23:37.299Z,56.24
2023-01-22T23:26:11.606Z,55.98
2023-01-22T23:28:38.979Z,56.27
2023-01-22T23:31:07.285Z,56.16
2023-01-22T23:33:34.611Z,56.13
2023-01-22T23:36:06.081Z,55.90
2023-01-22T23:38:33.206Z,56.01
2023-01-22T23:41:02.038Z,56.34
2023-01-22T23:43:29.399Z,56.55
2023-01-22T23:45:56.687Z,56.44
2023-01-22T23:48:23.880Z,56.36
2023-01-22T23:50:51.346Z,56.23
2023-01-22T23:53:18.550Z,56.51
2023-01-22T23:55:45.507Z,56.23
2023-01-22T23:58:12.633Z,55.98
